createdAt,value
2017-12-26T00:00:17.338Z,6.55
2017-12-26T00:02:44.880Z,8.75
2017-12-26T00:05:12.460Z,6.40
2017-12-26T00:07:40.114Z,9.10
2017-12-26T00:10:07.673Z,5.15
2017-12-26T00:12:35.278Z,5.47
2017-12-26T00:15:03.607Z,6.30
2017-12-26T00:17:31.178Z,5.72
2017-12-26T00:19:58.934Z,5.72
2017-12-26T00:22:26.615Z,6.65
2017-12-26T00:24:54.188Z,5.10
2017-12-26T00:27:21.773Z,6.75
2017-12-26T00:29:50.152Z,6.93
2017-12-26T00:32:18.577Z,5.70
2017-12-26T00:34:46.234Z,6.75
2017-12-26T00:37:13.792Z,5.82
2017-12-26T00:39:41.521Z,6.15
2017-12-26T00:42:09.934Z,6.80
2017-12-26T00:44:37.645Z,6.85
2017-12-26T00:47:05.242Z,7.20
2017-12-26T00:49:33.579Z,6.72
2017-12-26T00:52:01.145Z,8.15
2017-12-26T00:54:28.703Z,6.80
2017-12-26T00:56:56.282Z,7.68
2017-12-26T00:59:23.849Z,7.28
2017-12-26T01:01:51.417Z,8.65
2017-12-26T01:04:19.021Z,7.12
2017-12-26T01:06:46.618Z,8.18
2017-12-26T01:09:14.203Z,6.53
2017-12-26T01:11:41.861Z,6.03
2017-12-26T01:14:09.413Z,12.10
2017-12-26T01:16:36.966Z,7.00
2017-12-26T01:19:04.550Z,9.85
2017-12-26T01:21:32.194Z,7.37
2017-12-26T01:23:59.698Z,7.80
2017-12-26T01:26:28.039Z,7.78
2017-12-26T01:28:55.593Z,9.93
2017-12-26T01:31:23.200Z,8.90
2017-12-26T01:33:51.571Z,10.10
2017-12-26T01:36:20.105Z,7.53
2017-12-26T01:38:47.677Z,9.70
2017-12-26T01:41:15.310Z,7.45
2017-12-26T01:43:42.867Z,8.13
2017-12-26T01:46:22.150Z,8.75
2017-12-26T01:48:49.726Z,9.00
2017-12-26T01:51:17.293Z,9.95
2017-12-26T01:53:44.864Z,9.13
2017-12-26T01:56:13.225Z,9.35
2017-12-26T01:58:40.794Z,9.68
2017-12-26T02:01:09.217Z,8.93
2017-12-26T02:03:36.784Z,8.45
2017-12-26T02:06:05.263Z,10.65
2017-12-26T02:08:32.814Z,9.68
2017-12-26T02:11:00.381Z,9.25
2017-12-26T02:13:28.053Z,11.90
2017-12-26T02:15:55.710Z,9.98
2017-12-26T02:18:23.281Z,9.60
2017-12-26T02:20:50.901Z,9.35
2017-12-26T02:23:19.230Z,12.00
2017-12-26T02:25:46.777Z,9.65
2017-12-26T02:28:14.360Z,10.85
2017-12-26T02:30:41.959Z,12.77
2017-12-26T02:33:09.521Z,14.32
2017-12-26T02:35:37.087Z,10.43
2017-12-26T02:38:05.406Z,10.77
2017-12-26T02:40:32.978Z,10.18
2017-12-26T02:43:01.368Z,11.80
2017-12-26T02:45:29.007Z,12.27
2017-12-26T02:47:56.653Z,11.68
2017-12-26T02:50:24.298Z,9.40
2017-12-26T02:52:52.674Z,9.93
2017-12-26T02:55:21.026Z,12.15
2017-12-26T02:57:48.569Z,11.00
2017-12-26T03:00:16.188Z,9.93
2017-12-26T03:02:44.510Z,12.65
2017-12-26T03:05:12.079Z,9.57
2017-12-26T03:07:39.659Z,11.68
2017-12-26T03:10:07.221Z,10.90
2017-12-26T03:12:34.955Z,10.75
2017-12-26T03:15:02.512Z,11.23
2017-12-26T03:17:30.120Z,11.98
2017-12-26T03:19:58.440Z,11.77
2017-12-26T03:22:26.001Z,12.18
2017-12-26T03:24:53.588Z,10.70
2017-12-26T03:27:21.152Z,15.00
2017-12-26T03:29:48.724Z,10.95
2017-12-26T03:32:16.278Z,15.27
2017-12-26T03:34:43.846Z,11.45
2017-12-26T03:37:11.382Z,11.82
2017-12-26T03:39:38.947Z,13.70
2017-12-26T03:42:06.500Z,12.90
2017-12-26T03:44:34.113Z,12.10
2017-12-26T03:47:01.696Z,13.68
2017-12-26T03:49:30.015Z,13.65
2017-12-26T03:51:57.565Z,15.02
2017-12-26T03:54:25.133Z,13.13
2017-12-26T03:56:52.701Z,14.15
2017-12-26T03:59:20.253Z,16.08
2017-12-26T04:01:47.830Z,13.15
2017-12-26T04:04:15.398Z,14.07
2017-12-26T04:06:42.953Z,12.80
2017-12-26T04:09:11.439Z,13.62
2017-12-26T04:11:39.140Z,12.73
2017-12-26T04:14:06.709Z,14.60
2017-12-26T04:16:35.076Z,15.50
2017-12-26T04:19:02.751Z,12.48
2017-12-26T04:21:30.365Z,13.05
2017-12-26T04:23:57.941Z,15.68
2017-12-26T04:26:25.490Z,15.32
2017-12-26T04:28:53.059Z,11.40
2017-12-26T04:31:20.600Z,14.10
2017-12-26T04:33:48.182Z,12.15
2017-12-26T04:36:15.735Z,13.05
2017-12-26T04:38:43.338Z,14.80
2017-12-26T04:41:10.957Z,11.52
2017-12-26T04:43:39.279Z,17.90
2017-12-26T04:46:06.844Z,12.93
2017-12-26T04:48:34.385Z,11.45
2017-12-26T04:51:02.718Z,12.88
2017-12-26T04:53:30.393Z,12.57
2017-12-26T04:55:57.955Z,14.75
2017-12-26T04:58:25.522Z,10.77
2017-12-26T05:00:53.100Z,11.55
2017-12-26T05:03:20.657Z,13.55
2017-12-26T05:05:48.244Z,10.68
2017-12-26T05:08:15.819Z,11.52
2017-12-26T05:10:44.204Z,13.27
2017-12-26T05:13:12.546Z,8.55
2017-12-26T05:15:40.109Z,12.85
2017-12-26T05:18:07.660Z,10.55
2017-12-26T05:20:35.282Z,12.50
2017-12-26T05:23:03.612Z,12.18
2017-12-26T05:25:31.190Z,11.50
2017-12-26T05:27:58.750Z,11.70
2017-12-26T05:30:26.343Z,11.77
2017-12-26T05:32:54.755Z,10.15
2017-12-26T05:35:22.308Z,11.25
2017-12-26T05:37:49.899Z,9.93
2017-12-26T05:40:17.486Z,11.27
2017-12-26T05:42:45.161Z,8.57
2017-12-26T05:45:13.510Z,10.60
2017-12-26T05:47:41.190Z,11.10
2017-12-26T05:50:08.825Z,9.50
2017-12-26T05:52:36.393Z,9.52
2017-12-26T05:55:04.699Z,8.13
2017-12-26T05:57:32.270Z,8.68
2017-12-26T06:00:00.603Z,8.60
2017-12-26T06:02:28.260Z,6.87
2017-12-26T06:04:55.820Z,9.20
2017-12-26T06:07:23.413Z,8.70
2017-12-26T06:09:50.991Z,6.93
2017-12-26T06:12:18.550Z,7.82
2017-12-26T06:14:46.995Z,7.30
2017-12-26T06:17:14.570Z,8.90
2017-12-26T06:19:42.154Z,8.95
2017-12-26T06:22:09.818Z,9.53
2017-12-26T06:24:37.400Z,7.75
2017-12-26T06:27:05.828Z,9.00
2017-12-26T06:29:33.410Z,8.85
2017-12-26T06:32:00.999Z,9.35
2017-12-26T06:34:29.340Z,9.35
2017-12-26T06:36:57.041Z,11.55
2017-12-26T06:39:24.645Z,11.43
2017-12-26T06:41:52.218Z,10.27
2017-12-26T06:44:19.830Z,8.82
2017-12-26T06:46:47.440Z,8.18
2017-12-26T06:49:15.275Z,8.85
2017-12-26T06:51:43.603Z,7.18
2017-12-26T06:54:11.163Z,7.75
2017-12-26T06:56:38.731Z,8.77
2017-12-26T06:59:07.323Z,7.87
2017-12-26T07:01:35.302Z,8.10
2017-12-26T07:04:02.923Z,8.23
2017-12-26T07:06:30.501Z,7.07
2017-12-26T07:08:58.101Z,10.15
2017-12-26T07:11:25.718Z,9.15
2017-12-26T07:13:53.293Z,9.35
2017-12-26T07:16:20.876Z,10.95
2017-12-26T07:18:48.501Z,10.68
2017-12-26T07:21:21.887Z,9.65
2017-12-26T07:23:49.485Z,8.65
2017-12-26T07:26:17.064Z,9.55
2017-12-26T07:28:44.825Z,8.48
2017-12-26T07:31:12.425Z,8.65
2017-12-26T07:33:40.841Z,8.15
2017-12-26T07:36:08.423Z,6.32
2017-12-26T07:38:36.024Z,7.28
2017-12-26T07:41:04.365Z,10.30
2017-12-26T07:43:31.938Z,5.72
2017-12-26T07:45:59.519Z,6.05
2017-12-26T07:48:27.033Z,7.70
2017-12-26T07:50:54.639Z,7.80
2017-12-26T07:53:22.341Z,6.50
2017-12-26T07:55:50.749Z,8.07
2017-12-26T07:58:18.312Z,8.38
2017-12-26T08:00:45.887Z,6.43
2017-12-26T08:03:13.475Z,7.25
2017-12-26T08:05:41.043Z,6.28
2017-12-26T08:08:08.613Z,7.25
2017-12-26T08:10:36.976Z,8.13
2017-12-26T08:13:06.920Z,7.15
2017-12-26T08:15:34.622Z,5.37
2017-12-26T08:18:02.224Z,4.07
2017-12-26T08:20:30.517Z,4.87
2017-12-26T08:22:58.853Z,4.35
2017-12-26T08:25:26.415Z,2.87
2017-12-26T08:27:53.997Z,3.00
2017-12-26T08:30:21.521Z,3.33
2017-12-26T08:32:49.149Z,2.62
2017-12-26T08:35:16.850Z,2.50
2017-12-26T08:37:44.450Z,2.20
2017-12-26T08:40:12.104Z,2.67
2017-12-26T08:42:39.869Z,2.95
2017-12-26T08:45:07.426Z,2.45
2017-12-26T08:47:35.020Z,2.83
2017-12-26T08:50:02.575Z,3.00
2017-12-26T08:52:30.146Z,2.10
2017-12-26T08:54:58.494Z,2.47
2017-12-26T08:57:26.086Z,3.80
2017-12-26T08:59:54.428Z,1.73
2017-12-26T09:02:21.999Z,2.25
2017-12-26T09:04:49.584Z,2.05
2017-12-26T09:07:17.206Z,3.70
2017-12-26T09:09:44.762Z,2.12
2017-12-26T09:12:12.323Z,2.42
2017-12-26T09:14:39.937Z,3.00
2017-12-26T09:17:07.510Z,2.25
2017-12-26T09:19:35.842Z,1.58
2017-12-26T09:22:03.434Z,1.70
2017-12-26T09:24:31.012Z,1.60
2017-12-26T09:26:58.618Z,2.42
2017-12-26T09:29:28.290Z,1.30
2017-12-26T09:32:06.623Z,2.78
2017-12-26T09:34:34.213Z,1.60
2017-12-26T09:37:01.782Z,1.80
2017-12-26T09:39:29.353Z,2.08
2017-12-26T09:41:56.939Z,1.55
2017-12-26T09:44:24.591Z,1.60
2017-12-26T09:46:52.189Z,1.95
2017-12-26T09:49:20.540Z,3.60
2017-12-26T09:51:48.897Z,1.62
2017-12-26T09:54:16.511Z,1.30
2017-12-26T09:56:44.102Z,2.05
2017-12-26T09:59:11.665Z,2.15
2017-12-26T10:01:39.272Z,1.87
2017-12-26T10:04:06.899Z,2.62
2017-12-26T10:06:34.505Z,1.30
2017-12-26T10:09:02.821Z,2.22
2017-12-26T10:11:30.416Z,1.55
2017-12-26T10:13:57.993Z,1.75
2017-12-26T10:16:25.593Z,3.75
2017-12-26T10:18:53.134Z,3.15
2017-12-26T10:21:20.718Z,3.90
2017-12-26T10:23:49.069Z,2.67
2017-12-26T10:26:16.659Z,3.08
2017-12-26T10:28:44.982Z,3.42
2017-12-26T10:31:13.155Z,1.65
2017-12-26T10:33:40.788Z,2.20
2017-12-26T10:36:09.672Z,3.05
2017-12-26T10:38:37.302Z,3.40
2017-12-26T10:41:05.067Z,1.65
2017-12-26T10:43:33.466Z,4.12
2017-12-26T10:46:01.155Z,2.30
2017-12-26T10:48:28.785Z,2.67
2017-12-26T10:50:56.415Z,2.67
2017-12-26T10:53:26.238Z,2.33
2017-12-26T10:55:54.630Z,2.55
2017-12-26T10:58:22.384Z,2.78
2017-12-26T11:00:50.788Z,3.90
2017-12-26T11:03:18.415Z,2.20
2017-12-26T11:05:46.131Z,2.25
2017-12-26T11:08:14.024Z,6.30
2017-12-26T11:10:41.832Z,1.65
2017-12-26T11:13:10.239Z,1.70
2017-12-26T11:15:37.880Z,2.40
2017-12-26T11:18:06.290Z,2.20
2017-12-26T11:20:34.047Z,2.75
2017-12-26T11:23:01.631Z,1.70
2017-12-26T11:25:29.239Z,1.67
2017-12-26T11:27:56.831Z,1.37
2017-12-26T11:30:24.438Z,2.30
2017-12-26T11:32:52.077Z,2.17
2017-12-26T11:35:19.706Z,2.53
2017-12-26T11:37:48.065Z,2.60
2017-12-26T11:40:15.632Z,2.90
2017-12-26T11:42:43.320Z,5.10
2017-12-26T11:45:10.912Z,3.93
2017-12-26T11:47:38.574Z,2.57
2017-12-26T11:50:06.185Z,2.83
2017-12-26T11:52:34.531Z,2.00
2017-12-26T11:55:02.155Z,3.23
2017-12-26T11:57:29.962Z,2.90
2017-12-26T11:59:57.669Z,2.17
2017-12-26T12:02:26.019Z,4.47
2017-12-26T12:04:53.607Z,1.67
2017-12-26T12:07:22.015Z,1.90
2017-12-26T12:09:49.554Z,4.30
2017-12-26T12:12:17.923Z,3.20
2017-12-26T12:14:45.472Z,2.43
2017-12-26T12:17:13.082Z,1.87
2017-12-26T12:19:40.679Z,6.60
2017-12-26T12:22:08.249Z,1.40
2017-12-26T12:24:35.905Z,1.70
2017-12-26T12:27:03.486Z,3.53
2017-12-26T12:29:31.055Z,1.70
2017-12-26T12:31:59.531Z,2.03
2017-12-26T12:34:27.114Z,5.10
2017-12-26T12:36:55.443Z,2.60
2017-12-26T12:39:23.019Z,2.47
2017-12-26T12:41:50.624Z,6.60
2017-12-26T12:44:22.969Z,2.63
2017-12-26T12:46:50.559Z,5.40
2017-12-26T12:49:18.924Z,5.63
2017-12-26T12:51:47.271Z,2.73
2017-12-26T12:54:25.908Z,4.03
2017-12-26T12:56:53.670Z,1.67
2017-12-26T12:59:21.244Z,2.03
2017-12-26T13:01:48.809Z,4.30
2017-12-26T13:04:16.454Z,7.30
2017-12-26T13:06:44.045Z,6.77
2017-12-26T13:09:11.657Z,3.90
2017-12-26T13:11:40.037Z,2.60
2017-12-26T13:14:08.420Z,3.40
2017-12-26T13:16:36.755Z,3.90
2017-12-26T13:19:04.406Z,2.10
2017-12-26T13:21:33.015Z,4.40
2017-12-26T13:24:00.636Z,4.03
2017-12-26T13:26:28.240Z,2.33
2017-12-26T13:28:55.999Z,3.03
2017-12-26T13:31:23.586Z,10.57
2017-12-26T13:33:51.941Z,1.83
2017-12-26T13:36:19.495Z,2.87
2017-12-26T13:38:47.154Z,2.20
2017-12-26T13:41:14.855Z,2.20
2017-12-26T13:43:42.398Z,1.95
2017-12-26T13:46:10.470Z,3.40
2017-12-26T13:48:39.735Z,3.43
2017-12-26T13:51:07.313Z,5.80
2017-12-26T13:53:35.010Z,3.57
2017-12-26T13:56:04.359Z,3.10
2017-12-26T13:58:31.960Z,5.30
2017-12-26T14:00:59.526Z,5.93
2017-12-26T14:03:27.890Z,3.17
2017-12-26T14:05:55.484Z,7.60
2017-12-26T14:08:23.848Z,3.35
2017-12-26T14:10:51.446Z,3.13
2017-12-26T14:13:19.028Z,2.87
2017-12-26T14:15:46.617Z,4.07
2017-12-26T14:18:14.218Z,3.30
2017-12-26T14:20:41.811Z,2.07
2017-12-26T14:23:09.530Z,6.20
2017-12-26T14:25:37.873Z,8.63
2017-12-26T14:28:05.467Z,2.50
2017-12-26T14:30:33.824Z,3.15
2017-12-26T14:33:01.386Z,4.03
2017-12-26T14:35:29.087Z,3.25
2017-12-26T14:37:57.458Z,5.60
2017-12-26T14:40:25.793Z,4.53
2017-12-26T14:42:53.365Z,1.77
2017-12-26T14:45:20.979Z,5.43
2017-12-26T14:47:49.333Z,4.65
2017-12-26T14:50:16.900Z,2.47
2017-12-26T14:52:44.511Z,2.10
2017-12-26T14:55:12.071Z,1.98
2017-12-26T14:57:39.625Z,3.45
2017-12-26T15:00:07.208Z,3.67
2017-12-26T15:02:34.814Z,4.20
2017-12-26T15:05:02.402Z,5.55
2017-12-26T15:07:29.981Z,3.60
2017-12-26T15:09:57.610Z,6.35
2017-12-26T15:12:25.154Z,3.58
2017-12-26T15:14:52.752Z,2.95
2017-12-26T15:21:25.973Z,4.12
2017-12-26T15:23:53.551Z,3.15
2017-12-26T15:26:21.142Z,9.75
2017-12-26T15:28:49.519Z,4.78
2017-12-26T15:31:17.103Z,3.75
2017-12-26T15:33:44.674Z,2.22
2017-12-26T15:36:12.268Z,3.25
2017-12-26T15:38:39.874Z,3.00
2017-12-26T15:41:08.213Z,3.92
2017-12-26T15:43:35.800Z,7.28
2017-12-26T15:46:04.139Z,3.95
2017-12-26T15:48:31.713Z,5.70
2017-12-26T15:50:59.326Z,2.20
2017-12-26T15:53:27.662Z,5.20
2017-12-26T15:55:55.259Z,7.93
2017-12-26T15:58:23.616Z,4.75
2017-12-26T16:00:51.186Z,4.30
2017-12-26T16:03:18.753Z,4.22
2017-12-26T16:05:46.469Z,7.07
2017-12-26T16:08:14.023Z,1.83
2017-12-26T16:10:41.602Z,2.45
2017-12-26T16:13:09.174Z,2.30
2017-12-26T16:15:36.725Z,8.23
2017-12-26T16:18:04.278Z,3.20
2017-12-26T16:20:31.839Z,5.80
2017-12-26T16:22:59.418Z,5.70
2017-12-26T16:25:26.997Z,5.00
2017-12-26T16:27:54.585Z,2.53
2017-12-26T16:30:22.154Z,4.03
2017-12-26T16:32:49.719Z,2.90
2017-12-26T16:35:17.314Z,3.92
2017-12-26T16:37:45.074Z,3.80
2017-12-26T16:40:12.630Z,4.75
2017-12-26T16:42:40.195Z,9.90
2017-12-26T16:45:07.770Z,2.03
2017-12-26T16:47:35.330Z,3.72
2017-12-26T16:50:02.917Z,7.78
2017-12-26T16:52:30.541Z,2.55
2017-12-26T16:54:58.106Z,4.43
2017-12-26T16:57:25.690Z,2.97
2017-12-26T16:59:53.228Z,4.03
2017-12-26T17:02:20.799Z,2.50
2017-12-26T17:04:48.380Z,5.20
2017-12-26T17:07:15.993Z,1.67
2017-12-26T17:09:44.407Z,2.70
2017-12-26T17:12:11.973Z,6.68
2017-12-26T17:14:39.567Z,5.03
2017-12-26T17:17:07.310Z,5.78
2017-12-26T17:19:34.938Z,3.40
2017-12-26T17:22:03.263Z,2.30
2017-12-26T17:24:30.826Z,3.00
2017-12-26T17:26:58.366Z,8.95
2017-12-26T17:29:25.973Z,6.82
2017-12-26T17:31:53.569Z,5.68
2017-12-26T17:34:21.278Z,2.55
2017-12-26T17:36:48.942Z,6.85
2017-12-26T17:39:16.514Z,3.15
2017-12-26T17:41:44.071Z,2.33
2017-12-26T17:44:11.633Z,6.53
2017-12-26T17:46:39.378Z,4.07
2017-12-26T17:49:07.173Z,5.55
2017-12-26T17:51:34.734Z,3.67
2017-12-26T17:54:03.208Z,9.85
2017-12-26T17:56:30.756Z,5.05
2017-12-26T17:58:58.373Z,4.70
2017-12-26T18:01:25.934Z,6.60
2017-12-26T18:03:54.245Z,4.90
2017-12-26T18:06:21.822Z,5.10
2017-12-26T18:08:49.362Z,3.70
2017-12-26T18:11:17.714Z,1.77
2017-12-26T18:13:45.267Z,3.12
2017-12-26T18:16:12.829Z,4.07
2017-12-26T18:18:40.572Z,6.07
2017-12-26T18:21:08.107Z,5.75
2017-12-26T18:23:35.684Z,7.78
2017-12-26T18:26:03.258Z,4.40
2017-12-26T18:31:03.847Z,5.00
2017-12-26T18:33:31.414Z,7.87
2017-12-26T18:35:59.048Z,3.33
2017-12-26T18:38:26.598Z,3.03
2017-12-26T18:40:54.172Z,3.70
2017-12-26T18:43:21.742Z,3.25
2017-12-26T18:45:49.516Z,5.53
2017-12-26T18:48:17.068Z,5.20
2017-12-26T18:50:44.646Z,3.67
2017-12-26T18:53:12.402Z,3.17
2017-12-26T18:55:40.108Z,5.53
2017-12-26T18:58:07.697Z,3.20
2017-12-26T19:00:36.019Z,3.47
2017-12-26T19:03:03.568Z,4.57
2017-12-26T19:05:31.143Z,10.23
2017-12-26T19:07:58.825Z,3.37
2017-12-26T19:10:26.425Z,2.67
2017-12-26T19:12:54.774Z,6.40
2017-12-26T19:15:22.395Z,4.55
2017-12-26T19:17:49.987Z,3.05
2017-12-26T19:20:17.544Z,3.87
2017-12-26T19:22:45.121Z,3.85
2017-12-26T19:25:12.662Z,4.18
2017-12-26T19:27:40.293Z,4.75
2017-12-26T19:30:07.872Z,2.85
2017-12-26T19:32:35.426Z,6.10
2017-12-26T19:35:03.037Z,4.28
2017-12-26T19:37:30.601Z,5.82
2017-12-26T19:39:58.940Z,5.70
2017-12-26T19:42:26.510Z,6.40
2017-12-26T19:44:54.222Z,5.68
2017-12-26T19:47:22.549Z,5.85
2017-12-26T19:49:50.093Z,5.40
2017-12-26T19:52:17.645Z,6.22
2017-12-26T19:54:45.306Z,6.65
2017-12-26T19:57:13.030Z,7.85
2017-12-26T19:59:40.573Z,5.32
2017-12-26T20:02:08.474Z,6.85
2017-12-26T20:04:36.083Z,5.30
2017-12-26T20:07:03.671Z,6.60
2017-12-26T20:09:31.257Z,8.30
2017-12-26T20:11:59.613Z,6.03
2017-12-26T20:14:27.182Z,8.55
2017-12-26T20:16:55.061Z,8.43
2017-12-26T20:19:22.636Z,7.50
2017-12-26T20:21:50.281Z,6.47
2017-12-26T20:24:17.841Z,8.27
2017-12-26T20:26:46.177Z,6.32
2017-12-26T20:29:19.294Z,4.32
2017-12-26T20:31:46.852Z,8.32
2017-12-26T20:34:14.477Z,4.15
2017-12-26T20:36:42.057Z,6.57
2017-12-26T20:39:09.617Z,5.20
2017-12-26T20:41:37.170Z,6.18
2017-12-26T20:44:04.714Z,11.10
2017-12-26T20:46:32.293Z,9.63
2017-12-26T20:48:59.862Z,9.75
2017-12-26T20:51:27.454Z,7.87
2017-12-26T20:53:55.044Z,4.62
2017-12-26T20:56:22.629Z,7.40
2017-12-26T20:58:50.215Z,6.45
2017-12-26T21:01:17.813Z,6.47
2017-12-26T21:03:45.400Z,13.10
2017-12-26T21:06:13.750Z,11.30
2017-12-26T21:08:41.332Z,8.38
2017-12-26T21:11:08.885Z,6.05
2017-12-26T21:13:36.481Z,11.98
2017-12-26T21:16:05.363Z,9.40
2017-12-26T21:18:33.715Z,5.57
2017-12-26T21:21:01.280Z,7.07
2017-12-26T21:23:28.890Z,13.45
2017-12-26T21:25:56.437Z,9.75
2017-12-26T21:28:24.266Z,10.10
2017-12-26T21:30:52.744Z,8.75
2017-12-26T21:33:20.510Z,7.43
2017-12-26T21:35:49.522Z,9.07
2017-12-26T21:38:18.001Z,6.95
2017-12-26T21:40:45.887Z,5.43
2017-12-26T21:43:14.403Z,5.85
2017-12-26T21:45:42.057Z,6.87
2017-12-26T21:48:09.870Z,6.62
2017-12-26T21:50:37.897Z,6.37
2017-12-26T21:53:05.560Z,5.10
2017-12-26T21:55:33.343Z,5.55
2017-12-26T21:58:01.626Z,8.75
2017-12-26T22:00:29.257Z,4.20
2017-12-26T22:02:57.126Z,8.23
2017-12-26T22:05:24.943Z,8.07
2017-12-26T22:07:52.753Z,6.20
2017-12-26T22:10:20.352Z,6.55
2017-12-26T22:12:48.127Z,7.43
2017-12-26T22:15:15.722Z,9.85
2017-12-26T22:17:54.156Z,12.55
2017-12-26T22:20:21.901Z,9.02
2017-12-26T22:22:49.651Z,13.02
2017-12-26T22:25:17.335Z,10.13
2017-12-26T22:27:45.997Z,10.85
2017-12-26T22:30:13.740Z,11.65
2017-12-26T22:32:41.452Z,8.95
2017-12-26T22:35:09.948Z,14.75
2017-12-26T22:37:38.275Z,12.40
2017-12-26T22:40:05.929Z,9.10
2017-12-26T22:42:33.466Z,10.48
2017-12-26T22:45:01.047Z,13.68
2017-12-26T22:47:28.624Z,11.65
2017-12-26T22:49:56.206Z,8.05
2017-12-26T22:52:23.873Z,7.35
2017-12-26T22:54:51.496Z,7.93
2017-12-26T22:57:19.092Z,10.43
2017-12-26T22:59:46.693Z,5.82
2017-12-26T23:02:14.265Z,5.95
2017-12-26T23:04:41.992Z,14.57
2017-12-26T23:07:10.442Z,3.67
2017-12-26T23:09:38.005Z,5.90
2017-12-26T23:12:05.593Z,3.30
2017-12-26T23:14:38.807Z,5.90
2017-12-26T23:17:12.659Z,5.05
2017-12-26T23:19:45.950Z,6.80
2017-12-26T23:22:13.535Z,8.02
2017-12-26T23:24:46.636Z,7.62
2017-12-26T23:27:19.813Z,4.15
2017-12-26T23:29:53.131Z,5.10
2017-12-26T23:32:26.373Z,2.85
2017-12-26T23:34:59.655Z,3.65
2017-12-26T23:37:48.769Z,9.43
2017-12-26T23:40:21.895Z,3.60
2017-12-26T23:42:55.883Z,6.18
2017-12-26T23:45:29.026Z,8.73
2017-12-26T23:48:02.177Z,3.87
2017-12-26T23:50:35.405Z,5.90
2017-12-26T23:53:08.680Z,5.00
2017-12-26T23:55:42.582Z,5.80
2017-12-26T23:58:15.794Z,4.93
